sensor_id;sensor_type;location;lat;lon;timestamp;pressure;altitude;pressure_sealevel;temperature;humidity
28354;BME280;15603;50.878;8.036;2023-08-06T00:02:26;146325.78;;;12.94;100.00
28354;BME280;15603;50.878;8.036;2023-08-06T00:04:53;146317.25;;;12.91;100.00
28354;BME280;15603;50.878;8.036;2023-08-06T00:07:20;146334.31;;;12.98;100.00
28354;BME280;15603;50.878;8.036;2023-08-06T00:09:48;146336.75;;;12.99;100.00
28354;BME280;15603;50.878;8.036;2023-08-06T00:12:15;146331.84;;;12.97;100.00
28354;BME280;15603;50.878;8.036;2023-08-06T00:14:42;146319.69;;;12.92;100.00
28354;BME280;15603;50.878;8.036;2023-08-06T00:17:09;146311.19;;;12.88;100.00
28354;BME280;15603;50.878;8.036;2023-08-06T00:19:36;146319.69;;;12.92;100.00
28354;BME280;15603;50.878;8.036;2023-08-06T00:22:04;146256.41;;;12.65;100.00
28354;BME280;15603;50.878;8.036;2023-08-06T00:24:31;146308.72;;;12.87;100.00
28354;BME280;15603;50.878;8.036;2023-08-06T00:26:58;146314.84;;;12.90;100.00
28354;BME280;15603;50.878;8.036;2023-08-06T00:29:25;146305.09;;;12.86;100.00
28354;BME280;15603;50.878;8.036;2023-08-06T00:31:52;146194.31;;;12.39;100.00
28354;BME280;15603;50.878;8.036;2023-08-06T00:34:20;146278.31;;;12.74;100.00
28354;BME280;15603;50.878;8.036;2023-08-06T00:36:47;146302.66;;;12.85;100.00
28354;BME280;15603;50.878;8.036;2023-08-06T00:39:14;146295.31;;;12.82;100.00
28354;BME280;15603;50.878;8.036;2023-08-06T00:41:42;146212.56;;;12.47;100.00
28354;BME280;15603;50.878;8.036;2023-08-06T00:44:09;146283.19;;;12.76;100.00
28354;BME280;15603;50.878;8.036;2023-08-06T00:46:36;146298.97;;;12.83;100.00
28354;BME280;15603;50.878;8.036;2023-08-06T00:49:04;146305.09;;;12.86;100.00
28354;BME280;15603;50.878;8.036;2023-08-06T00:51:31;146297.78;;;12.83;100.00
28354;BME280;15603;50.878;8.036;2023-08-06T00:53:59;146275.84;;;12.73;100.00
28354;BME280;15603;50.878;8.036;2023-08-06T00:56:27;146229.63;;;12.54;100.00
28354;BME280;15603;50.878;8.036;2023-08-06T00:58:54;146280.72;;;12.75;100.00
28354;BME280;15603;50.878;8.036;2023-08-06T01:01:21;146263.72;;;12.68;100.00
28354;BME280;15603;50.878;8.036;2023-08-06T01:03:49;146269.78;;;12.71;100.00
28354;BME280;15603;50.878;8.036;2023-08-06T01:06:19;146285.59;;;12.77;100.00
28354;BME280;15603;50.878;8.036;2023-08-06T01:09:21;146246.66;;;12.61;100.00
28354;BME280;15603;50.878;8.036;2023-08-06T01:12:09;146205.28;;;12.44;100.00
28354;BME280;15603;50.878;8.036;2023-08-06T01:15:00;146274.66;;;12.73;100.00
28354;BME280;15603;50.878;8.036;2023-08-06T01:17:30;146273.44;;;12.72;100.00
28354;BME280;15603;50.878;8.036;2023-08-06T01:19:57;146297.78;;;12.83;100.00
28354;BME280;15603;50.878;8.036;2023-08-06T01:22:24;146292.91;;;12.81;100.00
28354;BME280;15603;50.878;8.036;2023-08-06T01:24:52;146294.13;;;12.81;100.00
28354;BME280;15603;50.878;8.036;2023-08-06T01:27:48;146295.31;;;12.82;100.00
28354;BME280;15603;50.878;8.036;2023-08-06T01:30:25;146322.13;;;12.93;100.00
28354;BME280;15603;50.878;8.036;2023-08-06T01:32:58;146311.19;;;12.88;100.00
28354;BME280;15603;50.878;8.036;2023-08-06T01:35:27;146266.13;;;12.69;100.00
28354;BME280;15603;50.878;8.036;2023-08-06T01:37:59;146325.78;;;12.94;100.00
28354;BME280;15603;50.878;8.036;2023-08-06T01:40:27;146297.78;;;12.83;100.00
28354;BME280;15603;50.878;8.036;2023-08-06T01:42:56;146291.72;;;12.80;100.00
28354;BME280;15603;50.878;8.036;2023-08-06T01:45:23;146275.84;;;12.73;100.00
28354;BME280;15603;50.878;8.036;2023-08-06T01:47:51;146278.31;;;12.74;100.00
28354;BME280;15603;50.878;8.036;2023-08-06T01:50:18;146289.25;;;12.79;100.00
28354;BME280;15603;50.878;8.036;2023-08-06T01:52:45;146286.84;;;12.78;100.00
28354;BME280;15603;50.878;8.036;2023-08-06T01:55:12;146307.50;;;12.87;100.00
28354;BME280;15603;50.878;8.036;2023-08-06T01:57:39;146317.25;;;12.91;100.00
28354;BME280;15603;50.878;8.036;2023-08-06T02:00:07;146307.50;;;12.87;100.00
28354;BME280;15603;50.878;8.036;2023-08-06T02:02:38;146283.19;;;12.76;100.00
28354;BME280;15603;50.878;8.036;2023-08-06T02:05:07;146269.78;;;12.71;100.00
28354;BME280;15603;50.878;8.036;2023-08-06T02:07:35;146307.50;;;12.87;100.00
28354;BME280;15603;50.878;8.036;2023-08-06T02:10:03;146324.56;;;12.94;100.00
28354;BME280;15603;50.878;8.036;2023-08-06T02:12:30;146307.50;;;12.87;100.00
28354;BME280;15603;50.878;8.036;2023-08-06T02:14:57;146314.84;;;12.90;100.00
28354;BME280;15603;50.878;8.036;2023-08-06T02:17:24;146311.19;;;12.88;100.00
28354;BME280;15603;50.878;8.036;2023-08-06T02:19:51;146300.25;;;12.84;100.00
28354;BME280;15603;50.878;8.036;2023-08-06T02:22:18;146317.25;;;12.91;100.00
28354;BME280;15603;50.878;8.036;2023-08-06T02:24:45;146292.91;;;12.81;100.00
28354;BME280;15603;50.878;8.036;2023-08-06T02:27:12;146307.50;;;12.87;100.00
28354;BME280;15603;50.878;8.036;2023-08-06T02:29:40;146303.84;;;12.85;100.00
28354;BME280;15603;50.878;8.036;2023-08-06T02:32:08;146309.97;;;12.88;100.00
28354;BME280;15603;50.878;8.036;2023-08-06T02:34:35;146312.38;;;12.89;100.00
28354;BME280;15603;50.878;8.036;2023-08-06T02:37:02;146309.97;;;12.88;100.00
28354;BME280;15603;50.878;8.036;2023-08-06T02:39:29;146309.97;;;12.88;100.00
28354;BME280;15603;50.878;8.036;2023-08-06T02:41:58;146329.44;;;12.96;100.00
28354;BME280;15603;50.878;8.036;2023-08-06T02:44:28;146324.56;;;12.94;100.00
28354;BME280;15603;50.878;8.036;2023-08-06T02:46:55;146241.81;;;12.59;100.00
28354;BME280;15603;50.878;8.036;2023-08-06T02:49:23;146307.50;;;12.87;100.00
28354;BME280;15603;50.878;8.036;2023-08-06T02:51:50;146305.09;;;12.86;100.00
28354;BME280;15603;50.878;8.036;2023-08-06T02:54:18;146319.69;;;12.92;100.00
28354;BME280;15603;50.878;8.036;2023-08-06T02:56:45;146295.31;;;12.82;100.00
28354;BME280;15603;50.878;8.036;2023-08-06T02:59:23;146285.59;;;12.77;100.00
28354;BME280;15603;50.878;8.036;2023-08-06T03:02:00;146278.31;;;12.74;100.00
28354;BME280;15603;50.878;8.036;2023-08-06T03:04:36;146274.66;;;12.73;100.00
28354;BME280;15603;50.878;8.036;2023-08-06T03:07:03;146295.31;;;12.82;100.00
28354;BME280;15603;50.878;8.036;2023-08-06T03:09:39;146302.66;;;12.85;100.00
28354;BME280;15603;50.878;8.036;2023-08-06T03:12:06;146290.47;;;12.80;100.00
28354;BME280;15603;50.878;8.036;2023-08-06T03:14:33;146285.59;;;12.77;100.00
28354;BME280;15603;50.878;8.036;2023-08-06T03:17:01;146280.72;;;12.75;100.00
28354;BME280;15603;50.878;8.036;2023-08-06T03:19:29;146290.47;;;12.80;100.00
28354;BME280;15603;50.878;8.036;2023-08-06T03:21:56;146275.84;;;12.73;100.00
28354;BME280;15603;50.878;8.036;2023-08-06T03:24:24;146253.94;;;12.64;100.00
28354;BME280;15603;50.878;8.036;2023-08-06T03:26:51;146275.84;;;12.73;100.00
28354;BME280;15603;50.878;8.036;2023-08-06T03:29:18;146266.13;;;12.69;100.00
28354;BME280;15603;50.878;8.036;2023-08-06T03:31:46;146271.00;;;12.71;100.00
28354;BME280;15603;50.878;8.036;2023-08-06T03:34:15;146256.41;;;12.65;100.00
28354;BME280;15603;50.878;8.036;2023-08-06T03:36:42;146217.44;;;12.49;100.00
28354;BME280;15603;50.878;8.036;2023-08-06T03:39:09;146278.31;;;12.74;100.00
28354;BME280;15603;50.878;8.036;2023-08-06T03:41:37;146275.84;;;12.73;100.00
28354;BME280;15603;50.878;8.036;2023-08-06T03:44:04;146275.84;;;12.73;100.00
28354;BME280;15603;50.878;8.036;2023-08-06T03:46:31;146267.34;;;12.70;100.00
28354;BME280;15603;50.878;8.036;2023-08-06T03:49:04;146251.53;;;12.63;100.00
28354;BME280;15603;50.878;8.036;2023-08-06T03:51:31;146271.00;;;12.71;100.00
28354;BME280;15603;50.878;8.036;2023-08-06T03:53:59;146105.50;;;12.02;100.00
28354;BME280;15603;50.878;8.036;2023-08-06T03:56:26;146261.25;;;12.67;100.00
28354;BME280;15603;50.878;8.036;2023-08-06T03:58:54;146277.06;;;12.74;100.00
28354;BME280;15603;50.878;8.036;2023-08-06T04:01:21;146234.47;;;12.56;100.00
28354;BME280;15603;50.878;8.036;2023-08-06T04:03:48;146278.31;;;12.74;100.00
28354;BME280;15603;50.878;8.036;2023-08-06T04:06:16;146279.53;;;12.75;100.00
28354;BME280;15603;50.878;8.036;2023-08-06T04:08:43;146290.47;;;12.80;100.00
28354;BME280;15603;50.878;8.036;2023-08-06T04:11:10;146261.25;;;12.67;100.00
28354;BME280;15603;50.878;8.036;2023-08-06T04:13:37;146273.44;;;12.72;100.00
28354;BME280;15603;50.878;8.036;2023-08-06T04:16:04;146232.06;;;12.55;100.00
28354;BME280;15603;50.878;8.036;2023-08-06T04:18:32;146260.06;;;12.67;100.00
28354;BME280;15603;50.878;8.036;2023-08-06T04:21:01;146262.47;;;12.68;100.00
28354;BME280;15603;50.878;8.036;2023-08-06T04:23:29;146256.41;;;12.65;100.00
28354;BME280;15603;50.878;8.036;2023-08-06T04:26:00;146275.84;;;12.73;100.00
28354;BME280;15603;50.878;8.036;2023-08-06T04:28:31;146266.13;;;12.69;100.00
28354;BME280;15603;50.878;8.036;2023-08-06T04:30:59;146266.13;;;12.69;100.00
28354;BME280;15603;50.878;8.036;2023-08-06T04:33:28;146266.13;;;12.69;100.00
28354;BME280;15603;50.878;8.036;2023-08-06T04:35:58;146253.94;;;12.64;100.00
28354;BME280;15603;50.878;8.036;2023-08-06T04:38:26;146219.88;;;12.50;100.00
28354;BME280;15603;50.878;8.036;2023-08-06T04:40:54;146206.50;;;12.44;100.00
28354;BME280;15603;50.878;8.036;2023-08-06T04:43:22;146285.59;;;12.77;100.00
28354;BME280;15603;50.878;8.036;2023-08-06T04:45:51;146298.97;;;12.83;100.00
28354;BME280;15603;50.878;8.036;2023-08-06T04:48:20;146312.38;;;12.89;100.00
28354;BME280;15603;50.878;8.036;2023-08-06T04:50:48;146331.84;;;12.97;100.00
28354;BME280;15603;50.878;8.036;2023-08-06T04:53:16;146358.63;;;13.08;100.00
28354;BME280;15603;50.878;8.036;2023-08-06T04:55:43;146340.38;;;13.01;100.00
28354;BME280;15603;50.878;8.036;2023-08-06T04:58:10;146359.88;;;13.09;100.00
28354;BME280;15603;50.878;8.036;2023-08-06T05:00:37;146368.38;;;13.12;100.00
28354;BME280;15603;50.878;8.036;2023-08-06T05:03:05;146392.75;;;13.23;100.00
28354;BME280;15603;50.878;8.036;2023-08-06T05:05:34;146409.88;;;13.30;100.00
28354;BME280;15603;50.878;8.036;2023-08-06T05:08:01;146429.34;;;13.38;100.00
28354;BME280;15603;50.878;8.036;2023-08-06T05:10:28;146459.75;;;13.51;100.00
28354;BME280;15603;50.878;8.036;2023-08-06T05:12:55;146480.47;;;13.60;100.00
28354;BME280;15603;50.878;8.036;2023-08-06T05:15:23;146523.09;;;13.78;100.00
28354;BME280;15603;50.878;8.036;2023-08-06T05:17:52;146507.28;;;13.71;100.00
28354;BME280;15603;50.878;8.036;2023-08-06T05:20:20;146507.28;;;13.71;100.00
28354;BME280;15603;50.878;8.036;2023-08-06T05:22:47;146490.22;;;13.64;100.00
28354;BME280;15603;50.878;8.036;2023-08-06T05:25:14;146503.63;;;13.69;100.00
28354;BME280;15603;50.878;8.036;2023-08-06T05:27:41;146490.22;;;13.64;100.00
28354;BME280;15603;50.878;8.036;2023-08-06T05:30:09;146502.41;;;13.69;100.00
28354;BME280;15603;50.878;8.036;2023-08-06T05:32:37;146446.41;;;13.45;100.00
28354;BME280;15603;50.878;8.036;2023-08-06T05:35:04;146473.16;;;13.57;100.00
28354;BME280;15603;50.878;8.036;2023-08-06T05:37:31;146457.34;;;13.50;100.00
28354;BME280;15603;50.878;8.036;2023-08-06T05:39:59;146461.00;;;13.51;100.00
28354;BME280;15603;50.878;8.036;2023-08-06T05:42:26;146470.75;;;13.55;100.00
28354;BME280;15603;50.878;8.036;2023-08-06T05:44:53;146441.47;;;13.43;100.00
28354;BME280;15603;50.878;8.036;2023-08-06T05:47:20;146467.06;;;13.54;100.00
28354;BME280;15603;50.878;8.036;2023-08-06T05:49:47;146487.81;;;13.63;100.00
28354;BME280;15603;50.878;8.036;2023-08-06T05:52:14;146499.94;;;13.68;100.00
28354;BME280;15603;50.878;8.036;2023-08-06T05:54:41;146487.81;;;13.63;100.00
28354;BME280;15603;50.878;8.036;2023-08-06T05:57:08;146504.81;;;13.70;100.00
28354;BME280;15603;50.878;8.036;2023-08-06T05:59:36;146486.56;;;13.62;100.00
28354;BME280;15603;50.878;8.036;2023-08-06T06:02:03;146490.22;;;13.64;100.00
28354;BME280;15603;50.878;8.036;2023-08-06T06:04:30;146426.88;;;13.37;100.00
28354;BME280;15603;50.878;8.036;2023-08-06T06:06:57;146464.66;;;13.53;100.00
28354;BME280;15603;50.878;8.036;2023-08-06T06:09:24;146485.34;;;13.62;100.00
28354;BME280;15603;50.878;8.036;2023-08-06T06:11:51;146461.00;;;13.51;100.00
28354;BME280;15603;50.878;8.036;2023-08-06T06:14:19;146507.28;;;13.71;100.00
28354;BME280;15603;50.878;8.036;2023-08-06T06:16:46;146507.28;;;13.71;100.00
28354;BME280;15603;50.878;8.036;2023-08-06T06:19:13;146482.94;;;13.61;100.00
28354;BME280;15603;50.878;8.036;2023-08-06T06:21:40;146591.31;;;14.06;100.00
28354;BME280;15603;50.878;8.036;2023-08-06T06:24:07;146663.22;;;14.37;100.00
28354;BME280;15603;50.878;8.036;2023-08-06T06:26:35;146742.47;;;14.70;100.00
28354;BME280;15603;50.878;8.036;2023-08-06T06:29:02;146755.88;;;14.76;100.00
28354;BME280;15603;50.878;8.036;2023-08-06T06:31:29;146665.66;;;14.38;100.00
28354;BME280;15603;50.878;8.036;2023-08-06T06:33:56;146826.59;;;15.05;100.00
28354;BME280;15603;50.878;8.036;2023-08-06T06:36:24;146836.34;;;15.09;100.00
28354;BME280;15603;50.878;8.036;2023-08-06T06:38:51;146837.56;;;15.10;100.00
28354;BME280;15603;50.878;8.036;2023-08-06T06:41:18;146833.88;;;15.08;100.00
28354;BME280;15603;50.878;8.036;2023-08-06T06:43:45;146829.00;;;15.06;100.00
28354;BME280;15603;50.878;8.036;2023-08-06T06:46:12;146909.50;;;15.40;100.00
28354;BME280;15603;50.878;8.036;2023-08-06T06:48:39;146909.50;;;15.40;100.00
28354;BME280;15603;50.878;8.036;2023-08-06T06:51:07;146908.28;;;15.40;100.00
28354;BME280;15603;50.878;8.036;2023-08-06T06:53:34;146955.84;;;15.60;100.00
28354;BME280;15603;50.878;8.036;2023-08-06T06:56:02;146829.00;;;15.06;100.00
28354;BME280;15603;50.878;8.036;2023-08-06T06:58:33;146827.81;;;15.06;100.00
28354;BME280;15603;50.878;8.036;2023-08-06T07:01:00;146840.00;;;15.11;100.00
28354;BME280;15603;50.878;8.036;2023-08-06T07:03:27;146860.72;;;15.20;100.00
28354;BME280;15603;50.878;8.036;2023-08-06T07:05:58;146807.06;;;14.97;100.00
28354;BME280;15603;50.878;8.036;2023-08-06T07:08:26;146824.13;;;15.04;100.00
28354;BME280;15603;50.878;8.036;2023-08-06T07:11:01;146821.72;;;15.03;100.00
28354;BME280;15603;50.878;8.036;2023-08-06T07:13:29;146748.59;;;14.72;100.00
28354;BME280;15603;50.878;8.036;2023-08-06T07:15:56;146770.50;;;14.82;100.00
28354;BME280;15603;50.878;8.036;2023-08-06T07:18:23;146807.06;;;14.97;100.00
28354;BME280;15603;50.878;8.036;2023-08-06T07:20:51;146858.31;;;15.19;100.00
28354;BME280;15603;50.878;8.036;2023-08-06T07:23:24;146880.22;;;15.28;100.00
28354;BME280;15603;50.878;8.036;2023-08-06T07:25:52;146870.47;;;15.24;100.00
28354;BME280;15603;50.878;8.036;2023-08-06T07:28:19;146863.19;;;15.21;100.00
28354;BME280;15603;50.878;8.036;2023-08-06T07:30:46;147025.41;;;15.89;100.00
28354;BME280;15603;50.878;8.036;2023-08-06T07:33:14;146997.34;;;15.77;100.00
28354;BME280;15603;50.878;8.036;2023-08-06T07:35:41;147060.78;;;16.04;100.00
28354;BME280;15603;50.878;8.036;2023-08-06T07:38:10;147069.31;;;16.07;100.00
28354;BME280;15603;50.878;8.036;2023-08-06T07:40:38;147064.44;;;16.05;100.00
28354;BME280;15603;50.878;8.036;2023-08-06T07:43:05;147192.56;;;16.59;100.00
28354;BME280;15603;50.878;8.036;2023-08-06T07:45:35;147148.63;;;16.41;100.00
28354;BME280;15603;50.878;8.036;2023-08-06T07:48:03;147043.69;;;15.97;100.00
28354;BME280;15603;50.878;8.036;2023-08-06T07:50:31;147103.47;;;16.22;100.00
28354;BME280;15603;50.878;8.036;2023-08-06T07:52:58;147147.41;;;16.40;100.00
28354;BME280;15603;50.878;8.036;2023-08-06T07:55:25;147132.78;;;16.34;100.00
28354;BME280;15603;50.878;8.036;2023-08-06T07:57:53;147075.41;;;16.10;100.00
28354;BME280;15603;50.878;8.036;2023-08-06T08:00:21;147085.16;;;16.14;100.00
28354;BME280;15603;50.878;8.036;2023-08-06T08:02:50;147080.28;;;16.12;100.00
28354;BME280;15603;50.878;8.036;2023-08-06T08:05:17;147068.06;;;16.07;100.00
28354;BME280;15603;50.878;8.036;2023-08-06T08:07:44;147002.22;;;15.79;100.00
28354;BME280;15603;50.878;8.036;2023-08-06T08:10:11;146996.13;;;15.77;100.00
28354;BME280;15603;50.878;8.036;2023-08-06T08:12:39;146914.38;;;15.42;100.00
28354;BME280;15603;50.878;8.036;2023-08-06T08:15:06;146870.47;;;15.24;100.00
28354;BME280;15603;50.878;8.036;2023-08-06T08:17:33;146836.34;;;15.09;100.00
28354;BME280;15603;50.878;8.036;2023-08-06T08:20:02;146837.56;;;15.10;100.00
28354;BME280;15603;50.878;8.036;2023-08-06T08:22:29;146820.47;;;15.03;100.00
28354;BME280;15603;50.878;8.036;2023-08-06T08:24:56;146853.44;;;15.17;100.00
28354;BME280;15603;50.878;8.036;2023-08-06T08:27:23;146690.03;;;14.48;100.00
28354;BME280;15603;50.878;8.036;2023-08-06T08:29:50;146898.50;;;15.36;100.00
28354;BME280;15603;50.878;8.036;2023-08-06T08:32:18;146899.75;;;15.36;100.00
28354;BME280;15603;50.878;8.036;2023-08-06T08:34:45;147025.41;;;15.89;100.00
28354;BME280;15603;50.878;8.036;2023-08-06T08:37:13;147044.91;;;15.97;100.00
28354;BME280;15603;50.878;8.036;2023-08-06T08:39:40;147027.84;;;15.90;100.00
28354;BME280;15603;50.878;8.036;2023-08-06T08:42:08;147019.31;;;15.86;100.00
28354;BME280;15603;50.878;8.036;2023-08-06T08:44:37;146968.06;;;15.65;100.00
28354;BME280;15603;50.878;8.036;2023-08-06T08:47:06;146996.13;;;15.77;100.00
28354;BME280;15603;50.878;8.036;2023-08-06T08:49:35;147011.97;;;15.83;100.00
28354;BME280;15603;50.878;8.036;2023-08-06T08:52:04;147087.63;;;16.15;100.00
28354;BME280;15603;50.878;8.036;2023-08-06T08:54:38;147054.69;;;16.01;100.00
28354;BME280;15603;50.878;8.036;2023-08-06T08:57:06;147209.63;;;16.66;100.00
28354;BME280;15603;50.878;8.036;2023-08-06T08:59:33;147251.16;;;16.84;100.00
28354;BME280;15603;50.878;8.036;2023-08-06T09:02:01;147229.19;;;16.75;100.00
28354;BME280;15603;50.878;8.036;2023-08-06T09:04:30;147114.47;;;16.26;100.00
28354;BME280;15603;50.878;8.036;2023-08-06T09:07:01;147055.91;;;16.02;100.00
28354;BME280;15603;50.878;8.036;2023-08-06T09:09:31;147127.91;;;16.32;100.00
28354;BME280;15603;50.878;8.036;2023-08-06T09:12:01;147187.69;;;16.57;100.00
28354;BME280;15603;50.878;8.036;2023-08-06T09:14:29;147122.97;;;16.30;100.00
28354;BME280;15603;50.878;8.036;2023-08-06T09:16:56;147144.94;;;16.39;100.00
28354;BME280;15603;50.878;8.036;2023-08-06T09:19:24;147099.78;;;16.20;100.00
28354;BME280;15603;50.878;8.036;2023-08-06T09:21:55;147192.56;;;16.59;100.00
28354;BME280;15603;50.878;8.036;2023-08-06T09:24:23;147231.59;;;16.76;100.00
28354;BME280;15603;50.878;8.036;2023-08-06T09:26:50;147236.47;;;16.78;100.00
28354;BME280;15603;50.878;8.036;2023-08-06T09:29:17;147356.13;;;17.28;98.07
28354;BME280;15603;50.878;8.036;2023-08-06T09:31:48;147221.84;;;16.72;97.56
28354;BME280;15603;50.878;8.036;2023-08-06T09:34:25;147354.94;;;17.27;100.00
28354;BME280;15603;50.878;8.036;2023-08-06T09:36:54;147300.00;;;17.04;100.00
28354;BME280;15603;50.878;8.036;2023-08-06T09:39:28;147321.97;;;17.14;100.00
28354;BME280;15603;50.878;8.036;2023-08-06T09:41:57;147297.56;;;17.03;100.00
28354;BME280;15603;50.878;8.036;2023-08-06T09:44:26;147309.75;;;17.08;96.25
28354;BME280;15603;50.878;8.036;2023-08-06T09:46:55;147165.72;;;16.48;99.34
28354;BME280;15603;50.878;8.036;2023-08-06T09:51:54;147094.91;;;16.18;100.00
28354;BME280;15603;50.878;8.036;2023-08-06T09:54:26;147063.19;;;16.05;100.00
28354;BME280;15603;50.878;8.036;2023-08-06T09:56:54;147033.94;;;15.93;100.00
28354;BME280;15603;50.878;8.036;2023-08-06T09:59:26;146963.16;;;15.63;100.00
28354;BME280;15603;50.878;8.036;2023-08-06T10:01:54;146970.47;;;15.66;100.00
28354;BME280;15603;50.878;8.036;2023-08-06T10:04:23;147013.19;;;15.84;100.00
28354;BME280;15603;50.878;8.036;2023-08-06T10:06:53;146999.81;;;15.78;100.00
28354;BME280;15603;50.878;8.036;2023-08-06T10:09:21;147014.44;;;15.84;100.00
28354;BME280;15603;50.878;8.036;2023-08-06T10:11:51;147118.09;;;16.28;100.00
28354;BME280;15603;50.878;8.036;2023-08-06T10:14:30;147153.50;;;16.43;99.69
28354;BME280;15603;50.878;8.036;2023-08-06T10:17:00;147148.63;;;16.41;100.00
28354;BME280;15603;50.878;8.036;2023-08-06T10:19:28;147258.50;;;16.87;95.67
28354;BME280;15603;50.878;8.036;2023-08-06T10:22:12;147309.75;;;17.08;98.54
28354;BME280;15603;50.878;8.036;2023-08-06T10:24:57;147326.84;;;17.16;96.35
28354;BME280;15603;50.878;8.036;2023-08-06T10:27:36;147433.06;;;17.60;92.06
28354;BME280;15603;50.878;8.036;2023-08-06T10:32:56;147536.94;;;18.04;96.65
28354;BME280;15603;50.878;8.036;2023-08-06T10:35:50;147646.88;;;18.50;92.62
28354;BME280;15603;50.878;8.036;2023-08-06T10:38:22;147607.75;;;18.34;90.97
28354;BME280;15603;50.878;8.036;2023-08-06T10:45:55;147370.81;;;17.34;99.79
28354;BME280;15603;50.878;8.036;2023-08-06T10:48:37;147260.97;;;16.88;99.54
28354;BME280;15603;50.878;8.036;2023-08-06T10:51:10;147351.25;;;17.26;92.20
28354;BME280;15603;50.878;8.036;2023-08-06T10:53:38;147400.09;;;17.46;92.00
28354;BME280;15603;50.878;8.036;2023-08-06T10:56:22;147551.59;;;18.10;92.17
28354;BME280;15603;50.878;8.036;2023-08-06T10:58:51;147549.16;;;18.09;93.25
28354;BME280;15603;50.878;8.036;2023-08-06T11:01:22;147606.56;;;18.33;87.03
28354;BME280;15603;50.878;8.036;2023-08-06T11:03:50;147693.31;;;18.70;91.85
28354;BME280;15603;50.878;8.036;2023-08-06T11:06:18;147761.78;;;18.98;89.87
28354;BME280;15603;50.878;8.036;2023-08-06T11:08:51;147733.69;;;18.87;87.91
28354;BME280;15603;50.878;8.036;2023-08-06T11:11:19;147807.03;;;19.17;87.77
28354;BME280;15603;50.878;8.036;2023-08-06T11:13:47;147769.16;;;19.01;84.76
28354;BME280;15603;50.878;8.036;2023-08-06T11:16:23;147720.25;;;18.81;85.12
28354;BME280;15603;50.878;8.036;2023-08-06T11:18:53;147739.78;;;18.89;85.42
28354;BME280;15603;50.878;8.036;2023-08-06T11:21:22;147712.84;;;18.78;83.66
28354;BME280;15603;50.878;8.036;2023-08-06T11:23:51;147661.53;;;18.56;84.57
28354;BME280;15603;50.878;8.036;2023-08-06T11:26:20;147578.47;;;18.21;91.43
28354;BME280;15603;50.878;8.036;2023-08-06T11:28:47;147453.84;;;17.69;88.56
28354;BME280;15603;50.878;8.036;2023-08-06T11:31:21;147529.59;;;18.01;93.58
28354;BME280;15603;50.878;8.036;2023-08-06T11:33:52;147513.75;;;17.94;93.16
28354;BME280;15603;50.878;8.036;2023-08-06T11:36:30;147573.59;;;18.19;88.69
28354;BME280;15603;50.878;8.036;2023-08-06T11:39:00;147521.03;;;17.97;89.13
28354;BME280;15603;50.878;8.036;2023-08-06T11:41:29;147467.28;;;17.75;89.42
28354;BME280;15603;50.878;8.036;2023-08-06T11:43:58;147341.50;;;17.22;94.83
28354;BME280;15603;50.878;8.036;2023-08-06T11:46:25;147490.53;;;17.84;92.49
28354;BME280;15603;50.878;8.036;2023-08-06T11:48:54;147532.06;;;18.02;96.11
28354;BME280;15603;50.878;8.036;2023-08-06T11:51:25;147573.59;;;18.19;94.33
28354;BME280;15603;50.878;8.036;2023-08-06T11:53:58;147609.03;;;18.34;91.86
28354;BME280;15603;50.878;8.036;2023-08-06T11:56:27;147606.56;;;18.33;90.00
28354;BME280;15603;50.878;8.036;2023-08-06T11:58:55;147439.22;;;17.63;90.92
28354;BME280;15603;50.878;8.036;2023-08-06T12:01:22;147387.88;;;17.41;95.20
28354;BME280;15603;50.878;8.036;2023-08-06T12:03:49;147260.97;;;16.88;97.18
28354;BME280;15603;50.878;8.036;2023-08-06T12:06:17;147159.56;;;16.45;100.00
28354;BME280;15603;50.878;8.036;2023-08-06T12:08:44;147102.25;;;16.21;100.00
28354;BME280;15603;50.878;8.036;2023-08-06T12:11:11;146991.25;;;15.75;100.00
28354;BME280;15603;50.878;8.036;2023-08-06T12:13:38;146921.72;;;15.45;100.00
28354;BME280;15603;50.878;8.036;2023-08-06T12:16:05;146720.56;;;14.61;100.00
28354;BME280;15603;50.878;8.036;2023-08-06T12:18:32;146541.38;;;13.85;100.00
28354;BME280;15603;50.878;8.036;2023-08-06T12:20:59;146471.94;;;13.56;100.00
28354;BME280;15603;50.878;8.036;2023-08-06T12:23:27;146386.63;;;13.20;100.00
28354;BME280;15603;50.878;8.036;2023-08-06T12:25:54;146294.13;;;12.81;100.00
28354;BME280;15603;50.878;8.036;2023-08-06T12:28:21;146285.59;;;12.77;100.00
28354;BME280;15603;50.878;8.036;2023-08-06T12:30:50;146324.56;;;12.94;100.00
28354;BME280;15603;50.878;8.036;2023-08-06T12:33:18;146339.16;;;13.00;100.00
28354;BME280;15603;50.878;8.036;2023-08-06T12:35:45;146285.59;;;12.77;100.00
28354;BME280;15603;50.878;8.036;2023-08-06T12:38:13;146322.13;;;12.93;100.00
28354;BME280;15603;50.878;8.036;2023-08-06T12:40:40;146271.00;;;12.71;100.00
28354;BME280;15603;50.878;8.036;2023-08-06T12:43:10;146268.59;;;12.70;100.00
28354;BME280;15603;50.878;8.036;2023-08-06T12:45:37;146244.22;;;12.60;100.00
28354;BME280;15603;50.878;8.036;2023-08-06T12:48:04;146275.84;;;12.73;100.00
28354;BME280;15603;50.878;8.036;2023-08-06T12:50:31;146314.84;;;12.90;100.00
28354;BME280;15603;50.878;8.036;2023-08-06T12:53:00;146297.78;;;12.83;100.00
28354;BME280;15603;50.878;8.036;2023-08-06T12:55:27;146305.09;;;12.86;100.00
28354;BME280;15603;50.878;8.036;2023-08-06T12:57:59;146261.25;;;12.67;100.00
28354;BME280;15603;50.878;8.036;2023-08-06T13:00:26;146291.72;;;12.80;100.00